»·PEaware :: N614FT KSNA-KBUR

N614FT :: KSNA-KBUR

FLIGHT INFORMATION

Flight Status: Arrived
Operator: Privately registered:
United States
More flights under this callsign
Pilot: Carlos A. (16805)
Aircraft: PIPER PA-31/31P NAVAJO CHIEFTAIN
(PA31)
More flights by this aircraft type
Origin: KSNA John Wayne-Orange Co
United States
Destination: KBUR Bob Hope-Burbank
United States
More flights between these airports :: More routes between these airports
Route: SLI V23 POPPR SMO125 SMO SMO311 SILEX
File this flight plan on PilotEdge
Remarks:
Altitude:
(Current/Filed)
4,000ft
Speed:
(Current/Filed)
0kts
Departed: 20-Jan-23 09:13 AM
Arrived: 20-Jan-23 09:42 AM
Distance/Time
Traveled:
40nm/0:29
Distance/Time
To Go:
Arrived

Flight Plot

Page will automatically refresh every two minutes.


Map Options




Map Legend


Flown Route
Filed Route
Departure Airport
Arrival Airport
Navaid (VOR, NDB)
Fix

Horizontal Profiles

Position Reports

Time Latitude Longitude Heading Altitude Ground
Speed
20-Jan-23 08:49 33.668101 -117.871643 37 60ft 0kts
20-Jan-23 08:50 33.668103 -117.871642 37 60ft 0kts
20-Jan-23 08:51 33.668104 -117.871641 37 60ft 0kts
20-Jan-23 08:52 33.668105 -117.871640 37 60ft 0kts
20-Jan-23 08:53 33.668106 -117.871639 37 60ft 0kts
20-Jan-23 08:54 33.668107 -117.871638 37 60ft 0kts
20-Jan-23 08:55 33.668108 -117.871637 37 60ft 0kts
20-Jan-23 08:57 33.668109 -117.871636 37 60ft 0kts
20-Jan-23 08:58 33.668111 -117.871635 37 60ft 0kts
20-Jan-23 08:59 33.668304 -117.871386 359 60ft 0kts
20-Jan-23 09:00 33.668306 -117.871386 359 60ft 0kts
20-Jan-23 09:01 33.669811 -117.870747 6 60ft 9kts
20-Jan-23 09:02 33.670019 -117.870657 35 60ft 0kts
20-Jan-23 09:03 33.670028 -117.870650 35 60ft 0kts
20-Jan-23 09:04 33.670029 -117.870648 35 60ft 0kts
20-Jan-23 09:05 33.670031 -117.870647 35 60ft 0kts
20-Jan-23 09:06 33.670066 -117.870608 45 60ft 6kts
20-Jan-23 09:07 33.672766 -117.867412 43 60ft 15kts
20-Jan-23 09:08 33.674499 -117.866766 25 60ft 9kts
20-Jan-23 09:09 33.678124 -117.864602 25 60ft 16kts
20-Jan-23 09:10 33.679711 -117.863825 317 60ft 0kts
20-Jan-23 09:11 33.679712 -117.863827 317 60ft 0kts
20-Jan-23 09:12 33.679714 -117.863828 317 60ft 0kts
20-Jan-23 09:13 33.678171 -117.865393 209 60ft 66kts
20-Jan-23 09:14 33.659421 -117.884887 229 1306ft 96kts
20-Jan-23 09:15 33.639641 -117.910485 249 2722ft 115kts
20-Jan-23 09:16 33.651699 -117.949901 297 3832ft 157kts
20-Jan-23 09:17 33.675960 -118.001327 302 4035ft 200kts
20-Jan-23 09:18 33.703786 -118.060077 298 3973ft 205kts
20-Jan-23 09:19 33.733620 -118.118031 305 3940ft 201kts
20-Jan-23 09:20 33.762733 -118.175638 303 3968ft 202kts
20-Jan-23 09:20 33.789511 -118.222319 309 4042ft 205kts
20-Jan-23 09:22 33.834247 -118.280914 319 4048ft 202kts
20-Jan-23 09:23 33.877216 -118.325472 322 4087ft 203kts
20-Jan-23 09:24 33.924186 -118.363544 326 4061ft 203kts
20-Jan-23 09:24 33.958974 -118.401601 311 3971ft 204kts
20-Jan-23 09:25 33.996617 -118.446987 323 4030ft 170kts
20-Jan-23 09:27 34.041106 -118.485779 325 4106ft 172kts
20-Jan-23 09:28 34.079892 -118.518980 328 4038ft 163kts
20-Jan-23 09:28 34.111196 -118.545030 322 3997ft 161kts
20-Jan-23 09:29 34.147344 -118.582856 322 4076ft 173kts
20-Jan-23 09:30 34.186137 -118.617200 327 4027ft 169kts
20-Jan-23 09:31 34.200863 -118.669661 271 3949ft 171kts
20-Jan-23 09:32 34.197677 -118.725582 222 3945ft 169kts
20-Jan-23 09:33 34.180169 -118.697663 45 3976ft 165kts
20-Jan-23 09:34 34.200519 -118.651854 85 3759ft 167kts
20-Jan-23 09:35 34.200201 -118.599443 90 3635ft 162kts
20-Jan-23 09:36 34.199139 -118.545791 83 3506ft 152kts
20-Jan-23 09:37 34.199839 -118.496240 88 3055ft 141kts
20-Jan-23 09:38 34.198796 -118.453227 92 2279ft 116kts
20-Jan-23 09:39 34.198048 -118.416203 89 1650ft 103kts
20-Jan-23 09:40 34.198103 -118.382890 91 983ft 85kts
20-Jan-23 09:41 34.197788 -118.361696 93 782ft 9kts
20-Jan-23 09:42 34.197224 -118.360301 179 782ft 0kts
20-Jan-23 09:43 34.197182 -118.360301 179 782ft 4kts
20-Jan-23 09:44 34.196688 -118.363157 271 782ft 18kts
20-Jan-23 09:45 34.196272 -118.365751 270 782ft 0kts

Navigation Log

Ident Type
Flight plan parsing failed, navigation log unavailable